sensor_id;sensor_type;location;lat;lon;timestamp;temperature;humidity
1381;DHT22;684;48.342;10.096;2022-12-01T00:02:18;4.70;36.70
1381;DHT22;684;48.342;10.096;2022-12-01T00:04:46;4.70;36.60
1381;DHT22;684;48.342;10.096;2022-12-01T00:07:13;4.70;36.70
1381;DHT22;684;48.342;10.096;2022-12-01T00:09:41;4.70;36.80
1381;DHT22;684;48.342;10.096;2022-12-01T00:12:25;4.70;36.80
1381;DHT22;684;48.342;10.096;2022-12-01T00:14:52;4.60;36.80
1381;DHT22;684;48.342;10.096;2022-12-01T00:17:26;4.60;37.00
1381;DHT22;684;48.342;10.096;2022-12-01T00:19:53;4.60;37.10
1381;DHT22;684;48.342;10.096;2022-12-01T00:22:20;4.70;37.30
1381;DHT22;684;48.342;10.096;2022-12-01T00:24:48;4.70;37.20
1381;DHT22;684;48.342;10.096;2022-12-01T00:27:15;4.70;37.30
1381;DHT22;684;48.342;10.096;2022-12-01T00:29:42;4.70;37.30
1381;DHT22;684;48.342;10.096;2022-12-01T00:32:09;4.70;37.40
1381;DHT22;684;48.342;10.096;2022-12-01T00:34:36;4.70;37.30
1381;DHT22;684;48.342;10.096;2022-12-01T00:37:03;4.70;37.40
1381;DHT22;684;48.342;10.096;2022-12-01T00:39:30;4.70;37.40
1381;DHT22;684;48.342;10.096;2022-12-01T00:41:58;4.70;37.50
1381;DHT22;684;48.342;10.096;2022-12-01T00:44:25;4.60;37.30
1381;DHT22;684;48.342;10.096;2022-12-01T00:46:52;4.60;37.40
1381;DHT22;684;48.342;10.096;2022-12-01T00:49:19;4.60;37.50
1381;DHT22;684;48.342;10.096;2022-12-01T00:51:45;4.60;37.40
1381;DHT22;684;48.342;10.096;2022-12-01T00:54:12;4.60;37.50
1381;DHT22;684;48.342;10.096;2022-12-01T00:56:39;4.60;37.60
1381;DHT22;684;48.342;10.096;2022-12-01T00:59:07;4.60;37.60
1381;DHT22;684;48.342;10.096;2022-12-01T01:01:34;4.50;37.80
1381;DHT22;684;48.342;10.096;2022-12-01T01:04:01;4.50;37.80
1381;DHT22;684;48.342;10.096;2022-12-01T01:06:27;4.60;37.80
1381;DHT22;684;48.342;10.096;2022-12-01T01:08:54;4.50;37.90
1381;DHT22;684;48.342;10.096;2022-12-01T01:11:21;4.60;37.90
1381;DHT22;684;48.342;10.096;2022-12-01T01:13:48;4.60;37.90
1381;DHT22;684;48.342;10.096;2022-12-01T01:16:18;4.60;37.90
1381;DHT22;684;48.342;10.096;2022-12-01T01:18:47;4.60;37.90
1381;DHT22;684;48.342;10.096;2022-12-01T01:21:16;4.60;37.90
1381;DHT22;684;48.342;10.096;2022-12-01T01:23:44;4.60;38.00
1381;DHT22;684;48.342;10.096;2022-12-01T01:26:16;4.60;37.90
1381;DHT22;684;48.342;10.096;2022-12-01T01:28:44;4.60;38.00
1381;DHT22;684;48.342;10.096;2022-12-01T01:31:13;4.60;38.00
1381;DHT22;684;48.342;10.096;2022-12-01T01:33:41;4.60;38.00
1381;DHT22;684;48.342;10.096;2022-12-01T01:36:08;4.60;38.00
1381;DHT22;684;48.342;10.096;2022-12-01T01:38:36;4.70;38.20
1381;DHT22;684;48.342;10.096;2022-12-01T01:41:03;4.70;38.10
1381;DHT22;684;48.342;10.096;2022-12-01T01:43:52;4.70;38.10
1381;DHT22;684;48.342;10.096;2022-12-01T01:46:21;4.70;38.30
1381;DHT22;684;48.342;10.096;2022-12-01T01:48:52;4.70;38.10
1381;DHT22;684;48.342;10.096;2022-12-01T01:51:22;4.70;38.10
1381;DHT22;684;48.342;10.096;2022-12-01T01:53:52;4.70;38.00
1381;DHT22;684;48.342;10.096;2022-12-01T01:56:21;4.70;38.10
1381;DHT22;684;48.342;10.096;2022-12-01T01:58:48;4.70;38.10
1381;DHT22;684;48.342;10.096;2022-12-01T02:01:15;4.70;38.10
1381;DHT22;684;48.342;10.096;2022-12-01T02:03:42;4.70;38.20
1381;DHT22;684;48.342;10.096;2022-12-01T02:06:10;4.70;38.00
1381;DHT22;684;48.342;10.096;2022-12-01T02:08:38;4.70;38.10
1381;DHT22;684;48.342;10.096;2022-12-01T02:11:25;4.70;37.90
1381;DHT22;684;48.342;10.096;2022-12-01T02:14:04;4.70;38.10
1381;DHT22;684;48.342;10.096;2022-12-01T02:16:40;4.70;38.00
1381;DHT22;684;48.342;10.096;2022-12-01T02:19:31;4.70;37.90
1381;DHT22;684;48.342;10.096;2022-12-01T02:22:17;4.70;38.00
1381;DHT22;684;48.342;10.096;2022-12-01T02:25:21;4.70;38.00
1381;DHT22;684;48.342;10.096;2022-12-01T02:30:49;4.70;38.20
1381;DHT22;684;48.342;10.096;2022-12-01T02:33:22;4.70;38.10
1381;DHT22;684;48.342;10.096;2022-12-01T02:35:56;4.70;37.90
1381;DHT22;684;48.342;10.096;2022-12-01T02:38:28;4.60;38.00
1381;DHT22;684;48.342;10.096;2022-12-01T02:41:00;4.60;38.10
1381;DHT22;684;48.342;10.096;2022-12-01T02:43:32;4.60;38.10
1381;DHT22;684;48.342;10.096;2022-12-01T02:46:06;4.60;38.20
1381;DHT22;684;48.342;10.096;2022-12-01T02:48:39;4.60;38.30
1381;DHT22;684;48.342;10.096;2022-12-01T02:51:10;4.60;38.20
1381;DHT22;684;48.342;10.096;2022-12-01T02:53:38;4.60;38.30
1381;DHT22;684;48.342;10.096;2022-12-01T02:56:08;4.60;38.30
1381;DHT22;684;48.342;10.096;2022-12-01T02:58:35;4.60;38.30
1381;DHT22;684;48.342;10.096;2022-12-01T03:01:14;4.60;38.30
1381;DHT22;684;48.342;10.096;2022-12-01T03:03:58;4.60;38.40
1381;DHT22;684;48.342;10.096;2022-12-01T03:06:35;4.70;38.40
1381;DHT22;684;48.342;10.096;2022-12-01T03:09:11;4.60;38.20
1381;DHT22;684;48.342;10.096;2022-12-01T03:11:45;4.60;38.20
1381;DHT22;684;48.342;10.096;2022-12-01T03:14:23;4.60;38.10
1381;DHT22;684;48.342;10.096;2022-12-01T03:17:00;4.60;38.20
1381;DHT22;684;48.342;10.096;2022-12-01T03:19:31;4.60;38.20
1381;DHT22;684;48.342;10.096;2022-12-01T03:22:05;4.60;38.30
1381;DHT22;684;48.342;10.096;2022-12-01T03:24:35;4.60;38.30
1381;DHT22;684;48.342;10.096;2022-12-01T03:27:03;4.60;38.30
1381;DHT22;684;48.342;10.096;2022-12-01T03:29:34;4.60;38.30
1381;DHT22;684;48.342;10.096;2022-12-01T03:32:09;4.60;38.30
1381;DHT22;684;48.342;10.096;2022-12-01T03:34:41;4.60;38.40
1381;DHT22;684;48.342;10.096;2022-12-01T03:37:13;4.60;38.50
1381;DHT22;684;48.342;10.096;2022-12-01T03:39:43;4.60;38.50
1381;DHT22;684;48.342;10.096;2022-12-01T03:42:15;4.60;38.40
1381;DHT22;684;48.342;10.096;2022-12-01T03:44:45;4.60;38.40
1381;DHT22;684;48.342;10.096;2022-12-01T03:47:18;4.60;38.40
1381;DHT22;684;48.342;10.096;2022-12-01T03:49:47;4.60;38.30
1381;DHT22;684;48.342;10.096;2022-12-01T03:52:23;4.60;38.30
1381;DHT22;684;48.342;10.096;2022-12-01T03:55:00;4.60;38.40
1381;DHT22;684;48.342;10.096;2022-12-01T03:57:31;4.70;38.40
1381;DHT22;684;48.342;10.096;2022-12-01T04:00:00;4.60;38.30
1381;DHT22;684;48.342;10.096;2022-12-01T04:02:29;4.70;38.30
1381;DHT22;684;48.342;10.096;2022-12-01T04:04:56;4.70;38.30
1381;DHT22;684;48.342;10.096;2022-12-01T04:07:23;4.70;38.10
1381;DHT22;684;48.342;10.096;2022-12-01T04:09:49;4.70;38.10
1381;DHT22;684;48.342;10.096;2022-12-01T04:12:16;4.70;38.20
1381;DHT22;684;48.342;10.096;2022-12-01T04:14:55;4.70;37.80
1381;DHT22;684;48.342;10.096;2022-12-01T04:17:22;4.70;37.80
1381;DHT22;684;48.342;10.096;2022-12-01T04:19:52;4.70;38.00
1381;DHT22;684;48.342;10.096;2022-12-01T04:22:20;4.70;38.00
1381;DHT22;684;48.342;10.096;2022-12-01T04:24:46;4.70;37.90
1381;DHT22;684;48.342;10.096;2022-12-01T04:27:13;4.70;38.00
1381;DHT22;684;48.342;10.096;2022-12-01T04:29:40;4.70;37.90
1381;DHT22;684;48.342;10.096;2022-12-01T04:32:07;4.70;37.90
1381;DHT22;684;48.342;10.096;2022-12-01T04:34:34;4.60;37.90
1381;DHT22;684;48.342;10.096;2022-12-01T04:37:03;4.60;38.00
1381;DHT22;684;48.342;10.096;2022-12-01T04:39:30;4.60;38.10
1381;DHT22;684;48.342;10.096;2022-12-01T04:41:57;4.60;38.00
1381;DHT22;684;48.342;10.096;2022-12-01T04:44:23;4.60;38.10
1381;DHT22;684;48.342;10.096;2022-12-01T04:46:50;4.60;38.20
1381;DHT22;684;48.342;10.096;2022-12-01T04:49:18;4.60;38.20
1381;DHT22;684;48.342;10.096;2022-12-01T04:51:45;4.60;38.10
1381;DHT22;684;48.342;10.096;2022-12-01T04:54:13;4.60;38.10
1381;DHT22;684;48.342;10.096;2022-12-01T04:56:40;4.60;38.10
1381;DHT22;684;48.342;10.096;2022-12-01T04:59:07;4.60;38.00
1381;DHT22;684;48.342;10.096;2022-12-01T05:01:34;4.60;38.10
1381;DHT22;684;48.342;10.096;2022-12-01T05:04:01;4.60;38.20
1381;DHT22;684;48.342;10.096;2022-12-01T05:06:29;4.60;38.10
1381;DHT22;684;48.342;10.096;2022-12-01T05:08:58;4.60;38.10
1381;DHT22;684;48.342;10.096;2022-12-01T05:11:28;4.60;38.20
1381;DHT22;684;48.342;10.096;2022-12-01T05:13:55;4.60;38.20
1381;DHT22;684;48.342;10.096;2022-12-01T05:16:25;4.60;38.10
1381;DHT22;684;48.342;10.096;2022-12-01T05:18:53;4.60;38.30
1381;DHT22;684;48.342;10.096;2022-12-01T05:21:41;4.60;38.10
1381;DHT22;684;48.342;10.096;2022-12-01T05:24:08;4.60;38.20
1381;DHT22;684;48.342;10.096;2022-12-01T05:26:36;4.60;38.30
1381;DHT22;684;48.342;10.096;2022-12-01T05:29:04;4.60;38.30
1381;DHT22;684;48.342;10.096;2022-12-01T05:31:31;4.60;38.30
1381;DHT22;684;48.342;10.096;2022-12-01T05:33:57;4.60;38.30
1381;DHT22;684;48.342;10.096;2022-12-01T05:36:24;4.60;38.30
1381;DHT22;684;48.342;10.096;2022-12-01T05:38:51;4.60;38.30
1381;DHT22;684;48.342;10.096;2022-12-01T05:41:19;4.60;38.20
1381;DHT22;684;48.342;10.096;2022-12-01T05:43:47;4.60;38.20
1381;DHT22;684;48.342;10.096;2022-12-01T05:46:14;4.60;38.20
1381;DHT22;684;48.342;10.096;2022-12-01T05:48:41;4.60;38.20
1381;DHT22;684;48.342;10.096;2022-12-01T05:51:08;4.60;38.20
1381;DHT22;684;48.342;10.096;2022-12-01T05:53:35;4.60;38.20
1381;DHT22;684;48.342;10.096;2022-12-01T05:56:03;4.60;38.20
1381;DHT22;684;48.342;10.096;2022-12-01T05:58:30;4.60;38.10
1381;DHT22;684;48.342;10.096;2022-12-01T06:00:58;4.60;38.20
1381;DHT22;684;48.342;10.096;2022-12-01T06:03:25;4.60;38.10
1381;DHT22;684;48.342;10.096;2022-12-01T06:05:51;4.60;38.20
1381;DHT22;684;48.342;10.096;2022-12-01T06:08:18;4.60;38.20
1381;DHT22;684;48.342;10.096;2022-12-01T06:10:45;4.60;38.10
1381;DHT22;684;48.342;10.096;2022-12-01T06:13:12;4.60;38.10
1381;DHT22;684;48.342;10.096;2022-12-01T06:15:39;4.60;38.10
1381;DHT22;684;48.342;10.096;2022-12-01T06:18:07;4.60;38.10
1381;DHT22;684;48.342;10.096;2022-12-01T06:20:34;4.60;38.10
1381;DHT22;684;48.342;10.096;2022-12-01T06:23:00;4.60;38.00
1381;DHT22;684;48.342;10.096;2022-12-01T06:25:27;4.60;38.10
1381;DHT22;684;48.342;10.096;2022-12-01T06:27:55;4.50;38.10
1381;DHT22;684;48.342;10.096;2022-12-01T06:30:22;4.50;38.20
1381;DHT22;684;48.342;10.096;2022-12-01T06:32:48;4.50;38.30
1381;DHT22;684;48.342;10.096;2022-12-01T06:35:17;4.50;38.30
1381;DHT22;684;48.342;10.096;2022-12-01T06:37:44;4.50;38.30
1381;DHT22;684;48.342;10.096;2022-12-01T06:40:11;4.50;38.30
1381;DHT22;684;48.342;10.096;2022-12-01T06:42:38;4.50;38.40
1381;DHT22;684;48.342;10.096;2022-12-01T06:45:05;4.50;38.40
1381;DHT22;684;48.342;10.096;2022-12-01T06:47:32;4.50;38.50
1381;DHT22;684;48.342;10.096;2022-12-01T06:49:59;4.50;38.50
1381;DHT22;684;48.342;10.096;2022-12-01T06:52:28;4.50;38.60
1381;DHT22;684;48.342;10.096;2022-12-01T06:54:55;4.40;38.50
1381;DHT22;684;48.342;10.096;2022-12-01T06:57:23;4.50;38.60
1381;DHT22;684;48.342;10.096;2022-12-01T06:59:50;4.50;38.60
1381;DHT22;684;48.342;10.096;2022-12-01T07:02:16;4.50;38.60
1381;DHT22;684;48.342;10.096;2022-12-01T07:04:43;4.50;38.60
1381;DHT22;684;48.342;10.096;2022-12-01T07:07:10;4.50;38.70
1381;DHT22;684;48.342;10.096;2022-12-01T07:09:38;4.60;38.70
1381;DHT22;684;48.342;10.096;2022-12-01T07:12:06;4.60;38.60
1381;DHT22;684;48.342;10.096;2022-12-01T07:14:33;4.60;38.60
1381;DHT22;684;48.342;10.096;2022-12-01T07:17:00;4.60;38.50
1381;DHT22;684;48.342;10.096;2022-12-01T07:19:27;4.60;38.50
1381;DHT22;684;48.342;10.096;2022-12-01T07:21:54;4.60;38.50
1381;DHT22;684;48.342;10.096;2022-12-01T07:24:20;4.70;38.50
1381;DHT22;684;48.342;10.096;2022-12-01T07:26:49;4.60;38.40
1381;DHT22;684;48.342;10.096;2022-12-01T07:29:15;4.70;38.50
1381;DHT22;684;48.342;10.096;2022-12-01T07:31:42;4.70;38.30
1381;DHT22;684;48.342;10.096;2022-12-01T07:34:10;4.70;38.40
1381;DHT22;684;48.342;10.096;2022-12-01T07:36:37;4.80;38.40
1381;DHT22;684;48.342;10.096;2022-12-01T07:39:05;4.80;37.90
1381;DHT22;684;48.342;10.096;2022-12-01T07:41:32;4.80;37.80
1381;DHT22;684;48.342;10.096;2022-12-01T07:44:01;4.70;37.90
1381;DHT22;684;48.342;10.096;2022-12-01T07:46:28;4.70;38.20
1381;DHT22;684;48.342;10.096;2022-12-01T07:48:55;4.70;38.20
1381;DHT22;684;48.342;10.096;2022-12-01T07:51:23;4.70;38.30
1381;DHT22;684;48.342;10.096;2022-12-01T07:53:51;4.70;38.40
1381;DHT22;684;48.342;10.096;2022-12-01T07:56:19;4.70;38.50
1381;DHT22;684;48.342;10.096;2022-12-01T07:58:46;4.70;38.40
1381;DHT22;684;48.342;10.096;2022-12-01T08:01:16;4.70;38.40
1381;DHT22;684;48.342;10.096;2022-12-01T08:03:43;4.70;38.50
1381;DHT22;684;48.342;10.096;2022-12-01T08:06:10;4.70;38.50
1381;DHT22;684;48.342;10.096;2022-12-01T08:08:39;4.70;38.50
1381;DHT22;684;48.342;10.096;2022-12-01T08:11:09;4.80;38.50
1381;DHT22;684;48.342;10.096;2022-12-01T08:13:36;4.80;38.40
1381;DHT22;684;48.342;10.096;2022-12-01T08:16:03;4.80;38.40
1381;DHT22;684;48.342;10.096;2022-12-01T08:18:33;4.90;38.50
1381;DHT22;684;48.342;10.096;2022-12-01T08:20:59;4.90;38.40
1381;DHT22;684;48.342;10.096;2022-12-01T08:23:26;4.90;38.30
1381;DHT22;684;48.342;10.096;2022-12-01T08:25:53;4.90;38.10
1381;DHT22;684;48.342;10.096;2022-12-01T08:28:20;4.90;38.10
1381;DHT22;684;48.342;10.096;2022-12-01T08:30:47;5.00;38.00
1381;DHT22;684;48.342;10.096;2022-12-01T08:33:14;5.00;38.00
1381;DHT22;684;48.342;10.096;2022-12-01T08:35:42;5.00;38.00
1381;DHT22;684;48.342;10.096;2022-12-01T08:38:09;5.00;38.00
1381;DHT22;684;48.342;10.096;2022-12-01T08:40:36;5.00;37.90
1381;DHT22;684;48.342;10.096;2022-12-01T08:43:03;5.00;37.80
1381;DHT22;684;48.342;10.096;2022-12-01T08:45:30;5.00;37.80
1381;DHT22;684;48.342;10.096;2022-12-01T08:47:57;5.00;37.80
1381;DHT22;684;48.342;10.096;2022-12-01T08:50:24;5.10;37.90
1381;DHT22;684;48.342;10.096;2022-12-01T08:52:55;5.10;38.00
1381;DHT22;684;48.342;10.096;2022-12-01T08:55:22;5.10;37.90
1381;DHT22;684;48.342;10.096;2022-12-01T08:57:50;5.10;38.60
1381;DHT22;684;48.342;10.096;2022-12-01T09:00:17;5.10;38.10
1381;DHT22;684;48.342;10.096;2022-12-01T09:02:44;5.10;38.00
1381;DHT22;684;48.342;10.096;2022-12-01T09:05:11;5.10;38.00
1381;DHT22;684;48.342;10.096;2022-12-01T09:07:38;5.20;37.80
1381;DHT22;684;48.342;10.096;2022-12-01T09:10:08;5.20;37.70
1381;DHT22;684;48.342;10.096;2022-12-01T09:12:35;5.10;37.60
1381;DHT22;684;48.342;10.096;2022-12-01T09:15:02;5.20;37.30
1381;DHT22;684;48.342;10.096;2022-12-01T09:17:29;5.20;37.40
1381;DHT22;684;48.342;10.096;2022-12-01T09:19:56;5.20;37.40
1381;DHT22;684;48.342;10.096;2022-12-01T09:22:22;5.20;37.40
1381;DHT22;684;48.342;10.096;2022-12-01T09:24:49;5.20;37.30
1381;DHT22;684;48.342;10.096;2022-12-01T09:27:17;5.30;37.30
1381;DHT22;684;48.342;10.096;2022-12-01T09:29:44;5.30;37.50
1381;DHT22;684;48.342;10.096;2022-12-01T09:32:11;5.40;37.30
1381;DHT22;684;48.342;10.096;2022-12-01T09:34:37;5.40;37.20
1381;DHT22;684;48.342;10.096;2022-12-01T09:37:04;5.50;37.20
1381;DHT22;684;48.342;10.096;2022-12-01T09:39:32;5.50;37.10
1381;DHT22;684;48.342;10.096;2022-12-01T09:42:02;5.50;37.00
1381;DHT22;684;48.342;10.096;2022-12-01T09:44:35;5.40;37.00
1381;DHT22;684;48.342;10.096;2022-12-01T09:47:13;5.40;37.00
1381;DHT22;684;48.342;10.096;2022-12-01T09:49:51;5.40;37.10
1381;DHT22;684;48.342;10.096;2022-12-01T09:52:22;5.50;37.20
1381;DHT22;684;48.342;10.096;2022-12-01T09:54:51;5.50;37.20
1381;DHT22;684;48.342;10.096;2022-12-01T09:57:27;5.50;36.90
1381;DHT22;684;48.342;10.096;2022-12-01T09:59:57;5.50;37.00
1381;DHT22;684;48.342;10.096;2022-12-01T10:02:31;5.50;36.90
1381;DHT22;684;48.342;10.096;2022-12-01T10:05:02;5.50;36.60
1381;DHT22;684;48.342;10.096;2022-12-01T10:07:31;5.50;36.40
1381;DHT22;684;48.342;10.096;2022-12-01T10:10:02;5.60;36.20
1381;DHT22;684;48.342;10.096;2022-12-01T10:12:31;5.60;36.40
1381;DHT22;684;48.342;10.096;2022-12-01T10:15:13;5.60;36.50
1381;DHT22;684;48.342;10.096;2022-12-01T10:17:46;5.60;36.60
1381;DHT22;684;48.342;10.096;2022-12-01T10:20:21;5.60;36.40
1381;DHT22;684;48.342;10.096;2022-12-01T10:23:10;5.60;36.50
1381;DHT22;684;48.342;10.096;2022-12-01T10:25:48;5.60;36.30
1381;DHT22;684;48.342;10.096;2022-12-01T10:28:37;5.60;36.40
1381;DHT22;684;48.342;10.096;2022-12-01T10:31:14;5.60;36.40
1381;DHT22;684;48.342;10.096;2022-12-01T10:33:53;5.60;36.90
1381;DHT22;684;48.342;10.096;2022-12-01T10:36:22;5.60;36.40
1381;DHT22;684;48.342;10.096;2022-12-01T10:38:50;5.70;36.60
1381;DHT22;684;48.342;10.096;2022-12-01T10:41:18;5.70;36.50
1381;DHT22;684;48.342;10.096;2022-12-01T10:43:54;5.70;37.00
1381;DHT22;684;48.342;10.096;2022-12-01T10:46:28;5.80;36.60
1381;DHT22;684;48.342;10.096;2022-12-01T10:48:59;5.80;36.30
1381;DHT22;684;48.342;10.096;2022-12-01T10:51:46;5.80;36.40
1381;DHT22;684;48.342;10.096;2022-12-01T10:54:13;5.80;36.30
1381;DHT22;684;48.342;10.096;2022-12-01T10:56:42;5.80;36.00
1381;DHT22;684;48.342;10.096;2022-12-01T10:59:23;5.80;36.10
1381;DHT22;684;48.342;10.096;2022-12-01T11:01:53;5.80;36.20
1381;DHT22;684;48.342;10.096;2022-12-01T11:04:30;5.80;36.20
1381;DHT22;684;48.342;10.096;2022-12-01T11:06:59;5.80;36.20
1381;DHT22;684;48.342;10.096;2022-12-01T11:09:28;5.80;36.00
1381;DHT22;684;48.342;10.096;2022-12-01T11:11:57;5.80;36.00
1381;DHT22;684;48.342;10.096;2022-12-01T11:14:39;5.80;36.00
1381;DHT22;684;48.342;10.096;2022-12-01T11:17:25;5.80;36.10
1381;DHT22;684;48.342;10.096;2022-12-01T11:19:52;5.80;36.40
1381;DHT22;684;48.342;10.096;2022-12-01T11:22:22;5.80;36.30
1381;DHT22;684;48.342;10.096;2022-12-01T11:25:03;5.70;36.40
1381;DHT22;684;48.342;10.096;2022-12-01T11:27:32;5.80;36.60
1381;DHT22;684;48.342;10.096;2022-12-01T11:30:03;5.70;37.00
1381;DHT22;684;48.342;10.096;2022-12-01T11:32:34;5.70;36.40
1381;DHT22;684;48.342;10.096;2022-12-01T11:35:04;5.70;36.60
1381;DHT22;684;48.342;10.096;2022-12-01T11:37:36;5.70;36.60
1381;DHT22;684;48.342;10.096;2022-12-01T11:40:07;5.70;36.60
1381;DHT22;684;48.342;10.096;2022-12-01T11:42:34;5.70;36.70
1381;DHT22;684;48.342;10.096;2022-12-01T11:45:08;5.70;36.70
1381;DHT22;684;48.342;10.096;2022-12-01T11:48:00;5.70;36.70
1381;DHT22;684;48.342;10.096;2022-12-01T11:50:29;5.70;36.90
1381;DHT22;684;48.342;10.096;2022-12-01T11:52:56;5.70;36.80
1381;DHT22;684;48.342;10.096;2022-12-01T11:55:24;5.70;36.80
1381;DHT22;684;48.342;10.096;2022-12-01T11:57:54;5.70;36.90
1381;DHT22;684;48.342;10.096;2022-12-01T12:00:23;5.70;36.90
1381;DHT22;684;48.342;10.096;2022-12-01T12:03:16;5.70;36.90
1381;DHT22;684;48.342;10.096;2022-12-01T12:05:57;5.70;37.10
1381;DHT22;684;48.342;10.096;2022-12-01T12:08:38;5.70;37.00
1381;DHT22;684;48.342;10.096;2022-12-01T12:11:13;5.70;37.00
1381;DHT22;684;48.342;10.096;2022-12-01T12:13:57;5.60;36.80
1381;DHT22;684;48.342;10.096;2022-12-01T12:16:37;5.60;37.10
1381;DHT22;684;48.342;10.096;2022-12-01T12:22:11;5.60;37.10
1381;DHT22;684;48.342;10.096;2022-12-01T12:25:02;5.60;37.20
1381;DHT22;684;48.342;10.096;2022-12-01T12:27:41;5.60;37.20
1381;DHT22;684;48.342;10.096;2022-12-01T12:30:19;5.60;37.20
1381;DHT22;684;48.342;10.096;2022-12-01T12:36:02;5.60;37.30
1381;DHT22;684;48.342;10.096;2022-12-01T12:38:47;5.60;37.30
1381;DHT22;684;48.342;10.096;2022-12-01T12:41:25;5.60;37.30
1381;DHT22;684;48.342;10.096;2022-12-01T12:44:05;5.60;37.30
1381;DHT22;684;48.342;10.096;2022-12-01T12:46:42;5.50;37.20
1381;DHT22;684;48.342;10.096;2022-12-01T12:49:24;5.50;37.20
1381;DHT22;684;48.342;10.096;2022-12-01T12:51:58;5.50;37.40
1381;DHT22;684;48.342;10.096;2022-12-01T12:54:30;5.50;37.40
1381;DHT22;684;48.342;10.096;2022-12-01T12:57:00;5.50;37.40
1381;DHT22;684;48.342;10.096;2022-12-01T12:59:32;5.50;37.40
1381;DHT22;684;48.342;10.096;2022-12-01T13:02:02;5.40;37.20
1381;DHT22;684;48.342;10.096;2022-12-01T13:04:35;5.40;37.30
1381;DHT22;684;48.342;10.096;2022-12-01T13:07:08;5.40;37.30
1381;DHT22;684;48.342;10.096;2022-12-01T13:09:40;5.40;37.30
1381;DHT22;684;48.342;10.096;2022-12-01T13:12:11;5.40;37.40
1381;DHT22;684;48.342;10.096;2022-12-01T13:14:42;5.40;37.40
1381;DHT22;684;48.342;10.096;2022-12-01T13:17:16;5.40;37.50
1381;DHT22;684;48.342;10.096;2022-12-01T13:19:45;5.40;37.50
1381;DHT22;684;48.342;10.096;2022-12-01T13:22:14;5.40;37.50
1381;DHT22;684;48.342;10.096;2022-12-01T13:24:42;5.40;37.50
1381;DHT22;684;48.342;10.096;2022-12-01T13:27:15;5.40;37.60
1381;DHT22;684;48.342;10.096;2022-12-01T13:29:45;5.40;37.70
1381;DHT22;684;48.342;10.096;2022-12-01T13:32:26;5.40;37.60
1381;DHT22;684;48.342;10.096;2022-12-01T13:34:53;5.40;37.60
1381;DHT22;684;48.342;10.096;2022-12-01T13:37:26;5.30;37.50
1381;DHT22;684;48.342;10.096;2022-12-01T13:39:54;5.30;37.70
1381;DHT22;684;48.342;10.096;2022-12-01T13:42:24;5.20;37.60
1381;DHT22;684;48.342;10.096;2022-12-01T13:44:53;5.20;37.80
1381;DHT22;684;48.342;10.096;2022-12-01T13:47:36;5.20;37.80
1381;DHT22;684;48.342;10.096;2022-12-01T13:50:35;5.20;37.90
1381;DHT22;684;48.342;10.096;2022-12-01T13:53:11;5.30;38.10
1381;DHT22;684;48.342;10.096;2022-12-01T13:55:57;5.20;37.90
1381;DHT22;684;48.342;10.096;2022-12-01T13:58:40;5.30;38.10
1381;DHT22;684;48.342;10.096;2022-12-01T14:01:42;5.30;38.00
1381;DHT22;684;48.342;10.096;2022-12-01T14:04:29;5.30;38.20
1381;DHT22;684;48.342;10.096;2022-12-01T14:07:22;5.30;38.20
1381;DHT22;684;48.342;10.096;2022-12-01T14:09:56;5.30;38.20
1381;DHT22;684;48.342;10.096;2022-12-01T14:12:26;5.30;38.10
1381;DHT22;684;48.342;10.096;2022-12-01T14:14:58;5.30;38.10
1381;DHT22;684;48.342;10.096;2022-12-01T14:17:28;5.30;38.10
1381;DHT22;684;48.342;10.096;2022-12-01T14:20:03;5.30;38.10
1381;DHT22;684;48.342;10.096;2022-12-01T14:22:36;5.30;38.20
1381;DHT22;684;48.342;10.096;2022-12-01T14:25:21;5.40;38.00
1381;DHT22;684;48.342;10.096;2022-12-01T14:27:51;5.30;38.10
1381;DHT22;684;48.342;10.096;2022-12-01T14:36:28;5.30;38.20
1381;DHT22;684;48.342;10.096;2022-12-01T14:39:01;5.30;38.10
1381;DHT22;684;48.342;10.096;2022-12-01T14:41:37;5.30;38.00
1381;DHT22;684;48.342;10.096;2022-12-01T14:44:11;5.30;38.10
1381;DHT22;684;48.342;10.096;2022-12-01T14:46:43;5.30;38.10
1381;DHT22;684;48.342;10.096;2022-12-01T14:49:15;5.30;38.10
1381;DHT22;684;48.342;10.096;2022-12-01T14:51:45;5.30;38.10
1381;DHT22;684;48.342;10.096;2022-12-01T14:54:19;5.30;38.10
1381;DHT22;684;48.342;10.096;2022-12-01T14:56:51;5.30;37.90
1381;DHT22;684;48.342;10.096;2022-12-01T14:59:21;5.30;37.90
1381;DHT22;684;48.342;10.096;2022-12-01T15:01:50;5.30;37.80
1381;DHT22;684;48.342;10.096;2022-12-01T15:04:17;5.30;37.80
1381;DHT22;684;48.342;10.096;2022-12-01T15:06:45;5.30;37.90
1381;DHT22;684;48.342;10.096;2022-12-01T15:09:14;5.30;37.80
1381;DHT22;684;48.342;10.096;2022-12-01T15:11:51;5.20;37.80
1381;DHT22;684;48.342;10.096;2022-12-01T15:14:26;5.20;37.90
1381;DHT22;684;48.342;10.096;2022-12-01T15:16:54;5.20;38.00
1381;DHT22;684;48.342;10.096;2022-12-01T15:19:22;5.20;38.00
1381;DHT22;684;48.342;10.096;2022-12-01T15:21:49;5.20;38.00
1381;DHT22;684;48.342;10.096;2022-12-01T15:24:21;5.20;38.10
1381;DHT22;684;48.342;10.096;2022-12-01T15:26:51;5.20;38.10
1381;DHT22;684;48.342;10.096;2022-12-01T15:29:22;5.20;38.10
1381;DHT22;684;48.342;10.096;2022-12-01T15:31:52;5.20;38.10
1381;DHT22;684;48.342;10.096;2022-12-01T15:34:22;5.20;38.20
1381;DHT22;684;48.342;10.096;2022-12-01T15:36:51;5.30;38.20
1381;DHT22;684;48.342;10.096;2022-12-01T15:39:20;5.30;38.20
1381;DHT22;684;48.342;10.096;2022-12-01T16:11:21;3.60;44.50
1381;DHT22;684;48.342;10.096;2022-12-01T16:13:54;3.70;46.60
1381;DHT22;684;48.342;10.096;2022-12-01T16:16:40;3.80;47.50
1381;DHT22;684;48.342;10.096;2022-12-01T16:19:27;4.10;47.10
1381;DHT22;684;48.342;10.096;2022-12-01T16:21:58;4.20;45.90
1381;DHT22;684;48.342;10.096;2022-12-01T16:24:28;4.30;45.00
1381;DHT22;684;48.342;10.096;2022-12-01T16:26:59;4.40;44.30
1381;DHT22;684;48.342;10.096;2022-12-01T16:29:28;4.50;43.90
1381;DHT22;684;48.342;10.096;2022-12-01T16:32:08;4.60;43.30
1381;DHT22;684;48.342;10.096;2022-12-01T16:34:40;4.70;43.00
1381;DHT22;684;48.342;10.096;2022-12-01T16:37:09;4.80;42.30
1381;DHT22;684;48.342;10.096;2022-12-01T16:39:37;4.90;42.00
1381;DHT22;684;48.342;10.096;2022-12-01T16:42:05;4.90;41.70
1381;DHT22;684;48.342;10.096;2022-12-01T16:44:32;5.00;41.40
1381;DHT22;684;48.342;10.096;2022-12-01T16:46:59;5.00;41.20
1381;DHT22;684;48.342;10.096;2022-12-01T16:49:26;5.10;40.90
1381;DHT22;684;48.342;10.096;2022-12-01T16:51:53;5.20;40.70
1381;DHT22;684;48.342;10.096;2022-12-01T16:54:20;5.20;40.50
1381;DHT22;684;48.342;10.096;2022-12-01T16:56:46;5.20;40.30
1381;DHT22;684;48.342;10.096;2022-12-01T16:59:15;5.20;40.10
1381;DHT22;684;48.342;10.096;2022-12-01T17:01:42;5.20;40.10
1381;DHT22;684;48.342;10.096;2022-12-01T17:04:08;5.20;39.90
1381;DHT22;684;48.342;10.096;2022-12-01T17:06:35;5.30;39.90
1381;DHT22;684;48.342;10.096;2022-12-01T17:09:03;5.30;39.90
1381;DHT22;684;48.342;10.096;2022-12-01T17:11:29;5.30;39.80
1381;DHT22;684;48.342;10.096;2022-12-01T17:13:57;5.30;39.80
1381;DHT22;684;48.342;10.096;2022-12-01T17:16:25;5.30;39.80
1381;DHT22;684;48.342;10.096;2022-12-01T17:18:52;5.30;39.80
1381;DHT22;684;48.342;10.096;2022-12-01T17:21:19;5.30;39.80
1381;DHT22;684;48.342;10.096;2022-12-01T17:23:45;5.30;39.80
1381;DHT22;684;48.342;10.096;2022-12-01T17:26:15;5.30;39.90